Time;durP1;ratioP1;P1;durP2;ratioP2;P2;SDS_P1;SDS_P2;PMS_P1;PMS_P2;Temp;Humidity;BMP_temperature;BMP_pressure;BME280_temperature;BME280_humidity;BME280_pressure;Samples;Min_cycle;Max_cycle;Signal;HPM_P1;HPM_P2
2022/05/27 00:01:49;;;;;;;9.00;2.30;;;;;;;19.29;47.22;99311.14;1753055;79;21617;-67
2022/05/27 00:04:15;;;;;;;4.78;1.90;;;;;;;19.44;47.06;99310.34;1701692;82;21436;-67
2022/05/27 00:06:42;;;;;;;2.72;1.80;;;;;;;19.49;47.11;99319.27;1718617;81;21459;-68
2022/05/27 00:09:09;;;;;;;2.10;1.90;;;;;;;19.54;47.31;99307.73;1743517;81;21513;-66
2022/05/27 00:11:36;;;;;;;2.62;1.70;;;;;;;19.70;47.65;99305.91;1695967;83;21822;-68
2022/05/27 00:14:02;;;;;;;3.35;2.00;;;;;;;19.59;48.92;99293.02;1703155;82;21456;-67
2022/05/27 00:16:29;;;;;;;2.25;1.85;;;;;;;19.64;49.09;99303.28;1699757;82;21565;-67
2022/05/27 00:18:58;;;;;;;4.53;1.92;;;;;;;19.56;49.15;99309.77;1740393;81;21642;-69
2022/05/27 00:21:25;;;;;;;;;;;;;;;19.69;48.91;99315.74;1701201;82;21384;-68
2022/05/27 00:23:52;;;;;;;;;;;;;;;19.58;49.49;99309.98;1692102;83;23547;-69
2022/05/27 00:26:18;;;;;;;2.30;1.80;;;;;;;19.54;49.46;99310.39;1696126;82;20411;-67
2022/05/27 00:28:45;;;;;;;3.72;1.85;;;;;;;19.54;49.33;99314.39;1694618;82;22037;-69
2022/05/27 00:31:12;;;;;;;5.80;1.90;;;;;;;19.44;49.63;99314.34;1716570;81;21505;-68
2022/05/27 00:33:39;;;;;;;4.62;2.80;;;;;;;19.45;49.82;99314.19;1691590;83;21680;-69
2022/05/27 00:36:09;;;;;;;3.37;1.72;;;;;;;19.49;50.03;99313.44;1691700;82;21874;-68
2022/05/27 00:38:37;;;;;;;3.45;1.62;;;;;;;19.47;50.10;99327.39;1702925;82;21519;-69
2022/05/27 00:41:06;;;;;;;4.80;2.05;;;;;;;19.48;50.11;99322.42;1713883;82;21033;-69
2022/05/27 00:43:32;;;;;;;2.35;1.87;;;;;;;19.53;50.17;99326.86;1737811;81;21601;-69
2022/05/27 00:46:03;;;;;;;3.98;2.08;;;;;;;19.36;50.76;99333.62;1708794;82;21002;-67
2022/05/27 00:48:33;;;;;;;5.53;1.90;;;;;;;19.41;50.58;99333.25;1705822;82;21503;-69
2022/05/27 00:51:00;;;;;;;2.72;2.20;;;;;;;19.22;51.12;99333.45;1704050;82;21530;-70
2022/05/27 00:53:35;;;;;;;6.87;1.92;;;;;;;19.24;51.38;99323.52;1679218;82;21423;-69
2022/05/27 00:56:05;;;;;;;3.87;2.00;;;;;;;19.37;51.25;99328.66;1701908;83;21572;-69
2022/05/27 00:58:50;;;;;;;;;;;;;;;19.31;51.09;99329.65;1706207;83;21085;-68
2022/05/27 01:01:17;;;;;;;2.58;1.98;;;;;;;19.20;51.32;99334.08;1693271;83;21892;-68
2022/05/27 01:03:43;;;;;;;5.17;1.60;;;;;;;19.25;51.04;99335.88;1701565;82;21573;-68
2022/05/27 01:06:10;;;;;;;2.45;1.80;;;;;;;19.23;51.05;99335.63;1694564;82;21824;-68
2022/05/27 01:08:37;;;;;;;3.67;2.22;;;;;;;19.05;51.33;99338.02;1692253;82;21628;-69
2022/05/27 01:11:28;;;;;;;1.98;1.60;;;;;;;19.18;50.76;99341.85;1699134;82;21680;-69
2022/05/27 01:14:17;;;;;;;1.87;1.72;;;;;;;19.16;51.14;99337.98;1693291;82;22092;-69
2022/05/27 01:17:16;;;;;;;1.95;1.77;;;;;;;19.39;50.51;99340.53;1705737;82;21491;-68
2022/05/27 01:20:18;;;;;;;3.40;2.08;;;;;;;19.32;50.46;99344.68;1608262;87;21005;-67
2022/05/27 01:23:33;;;;;;;3.67;1.60;;;;;;;19.27;50.25;99343.75;1686338;82;21590;-68
2022/05/27 01:26:23;;;;;;;3.33;2.05;;;;;;;19.37;50.06;99347.31;1693384;83;21444;-69
2022/05/27 01:29:04;;;;;;;2.60;1.60;;;;;;;19.37;49.94;99345.98;1681048;83;21479;-69
2022/05/27 01:31:43;;;;;;;3.47;1.72;;;;;;;19.34;49.96;99344.90;1705291;83;21658;-67
2022/05/27 01:34:29;;;;;;;3.92;1.90;;;;;;;19.22;50.09;99337.45;1685131;82;21542;-67
2022/05/27 01:37:07;;;;;;;2.67;1.67;;;;;;;19.34;50.29;99343.56;1687483;81;21080;-67
2022/05/27 01:39:51;;;;;;;6.40;1.70;;;;;;;19.36;50.12;99338.11;1711867;81;21495;-66
2022/05/27 01:42:46;;;;;;;4.17;1.77;;;;;;;19.50;49.71;99340.97;1713687;82;21885;-66
2022/05/27 01:45:29;;;;;;;3.63;1.70;;;;;;;19.50;49.61;99337.80;1708692;82;21547;-67
2022/05/27 01:48:13;;;;;;;2.98;1.52;;;;;;;19.53;49.53;99336.19;1699944;82;21568;-68
2022/05/27 01:51:06;;;;;;;8.10;2.17;;;;;;;19.41;49.69;99335.42;1661672;82;21591;-68
2022/05/27 01:53:49;;;;;;;5.12;1.77;;;;;;;19.39;49.81;99336.53;1701339;82;21506;-68
2022/05/27 01:56:30;;;;;;;5.00;1.62;;;;;;;19.39;49.98;99330.70;1702418;82;21483;-68
2022/05/27 01:59:06;;;;;;;2.02;1.47;;;;;;;19.35;50.28;99331.11;1706897;82;21436;-68
2022/05/27 02:01:46;;;;;;;4.87;1.60;;;;;;;19.34;50.31;99339.57;1712781;82;21450;-67
2022/05/27 02:04:30;;;;;;;3.87;1.62;;;;;;;19.38;50.28;99353.02;1703947;82;21737;-67
2022/05/27 02:07:01;;;;;;;2.42;1.65;;;;;;;19.39;50.11;99352.53;1700963;82;21464;-68
2022/05/27 02:09:41;;;;;;;2.42;1.65;;;;;;;19.37;50.25;99357.14;1700991;82;21831;-68
2022/05/27 02:12:17;;;;;;;8.80;2.00;;;;;;;19.28;50.38;99352.09;1701766;82;21148;-68
2022/05/27 02:14:49;;;;;;;3.37;1.42;;;;;;;19.36;50.14;99353.61;1691251;82;21720;-68
2022/05/27 02:17:27;;;;;;;1.90;1.62;;;;;;;19.39;50.03;99352.53;1700248;82;21557;-68
2022/05/27 02:20:04;;;;;;;;;;;;;;;19.32;50.28;99349.52;1713005;82;21495;-68
2022/05/27 02:22:41;;;;;;;4.08;1.62;;;;;;;19.25;50.82;99361.20;1705518;81;22144;-67
2022/05/27 02:25:17;;;;;;;;;;;;;;;19.30;50.85;99362.63;1716041;82;21589;-70
2022/05/27 02:27:53;;;;;;;4.25;1.70;;;;;;;19.23;50.98;99361.81;1710310;82;20416;-68
2022/05/27 02:30:21;;;;;;;4.20;1.70;;;;;;;19.28;50.98;99373.41;1701365;82;21470;-67
2022/05/27 02:35:07;;;;;;;1.40;1.20;;;;;;;19.38;50.51;99374.81;1701280;82;21426;-67
2022/05/27 02:35:24;;;;;;;2.80;1.60;;;;;;;19.33;50.64;99381.04;1692079;82;21590;-67
2022/05/27 02:37:53;;;;;;;1.60;1.47;;;;;;;19.24;51.11;99387.97;1696441;82;21456;-68
2022/05/27 02:40:23;;;;;;;2.30;1.60;;;;;;;19.31;51.26;99388.28;1701504;82;21038;-67
2022/05/27 02:43:22;;;;;;;4.65;1.90;;;;;;;19.38;51.13;99385.48;1707129;81;21009;-66
2022/05/27 02:46:19;;;;;;;2.65;1.22;;;;;;;19.48;50.76;99391.75;1743044;81;21589;-68
2022/05/27 02:49:18;;;;;;;3.47;1.37;;;;;;;19.59;50.39;99391.69;1703720;82;21939;-66
2022/05/27 02:51:59;;;;;;;7.40;2.27;;;;;;;19.54;50.45;99393.89;1655527;83;21586;-66
2022/05/27 02:54:37;;;;;;;2.25;1.65;;;;;;;19.50;50.66;99387.62;1717983;81;21435;-67
2022/05/27 02:57:27;;;;;;;3.10;1.55;;;;;;;19.48;50.76;99385.08;1715444;81;21717;-67
2022/05/27 02:59:55;;;;;;;1.32;1.10;;;;;;;19.42;51.11;99383.77;1715570;81;21609;-67
2022/05/27 03:02:21;;;;;;;1.85;1.40;;;;;;;19.48;51.20;99383.75;1721206;80;21875;-67
2022/05/27 03:04:52;;;;;;;2.08;1.52;;;;;;;19.50;51.13;99384.46;1728201;81;20967;-68
2022/05/27 03:07:57;;;;;;;3.33;1.82;;;;;;;19.56;51.25;99391.10;1698337;83;21469;-67
2022/05/27 03:10:53;;;;;;;4.37;1.70;;;;;;;19.61;50.97;99388.90;1730390;81;21569;-68
2022/05/27 03:13:53;;;;;;;3.25;1.37;;;;;;;19.60;50.91;99395.19;1720493;81;20958;-68
2022/05/27 03:17:03;;;;;;;1.55;1.45;;;;;;;19.56;50.92;99395.94;1709081;80;21402;-68
2022/05/27 03:20:09;;;;;;;1.22;1.12;;;;;;;19.63;51.04;99398.95;1741914;81;21450;-68
2022/05/27 03:23:00;;;;;;;2.47;1.40;;;;;;;19.59;51.45;99406.82;1707720;81;21495;-69
2022/05/27 03:25:31;;;;;;;4.50;1.37;;;;;;;19.59;51.62;99410.36;1726840;81;22057;-68
2022/05/27 03:28:36;;;;;;;3.47;1.62;;;;;;;19.62;51.37;99410.58;1744816;81;21514;-68
2022/05/27 03:31:31;;;;;;;2.85;1.32;;;;;;;19.55;51.48;99416.05;1682649;82;22069;-69
2022/05/27 03:34:38;;;;;;;1.80;1.55;;;;;;;19.53;51.58;99421.52;1665359;83;21565;-69
2022/05/27 03:37:22;;;;;;;1.67;1.52;;;;;;;19.58;51.42;99425.98;1694060;82;21650;-68
2022/05/27 03:39:54;;;;;;;2.08;1.57;;;;;;;19.52;52.23;99428.33;1695500;82;21591;-69
2022/05/27 03:42:24;;;;;;;3.42;1.70;;;;;;;19.56;52.39;99432.43;1694910;82;21053;-69
2022/05/27 03:45:15;;;;;;;2.27;1.52;;;;;;;19.72;51.83;99430.64;1699201;82;21577;-69
2022/05/27 03:47:44;;;;;;;3.47;1.45;;;;;;;19.56;52.02;99427.94;1706539;82;21564;-69
2022/05/27 03:50:20;;;;;;;4.75;1.75;;;;;;;19.48;52.10;99420.20;1715004;81;21507;-70
2022/05/27 03:52:49;;;;;;;3.75;1.35;;;;;;;19.47;52.14;99417.20;1708651;82;21607;-69
2022/05/27 03:55:21;;;;;;;4.05;1.60;;;;;;;19.45;52.27;99410.66;1722190;81;21057;-70
2022/05/27 03:57:48;;;;;;;2.25;1.60;;;;;;;19.47;52.30;99422.03;1730460;81;21774;-70
2022/05/27 04:00:16;;;;;;;4.33;1.50;;;;;;;19.65;51.97;99416.50;1692592;83;20953;-68
2022/05/27 04:02:45;;;;;;;1.90;1.55;;;;;;;19.56;52.21;99411.09;1706896;81;21042;-68
2022/05/27 04:05:18;;;;;;;4.08;1.60;;;;;;;19.60;52.26;99412.03;1702374;83;21590;-67
2022/05/27 04:07:46;;;;;;;1.57;1.40;;;;;;;19.65;52.03;99409.83;1704549;82;21407;-67
2022/05/27 04:10:15;;;;;;;1.55;1.20;;;;;;;19.60;52.59;99416.03;1705639;82;21909;-70
2022/05/27 04:12:41;;;;;;;2.08;1.20;;;;;;;19.77;52.61;99419.97;1694840;81;21567;-69
2022/05/27 04:15:09;;;;;;;5.83;1.40;;;;;;;19.84;52.34;99421.16;1691228;82;21057;-70
2022/05/27 04:17:36;;;;;;;3.72;1.65;;;;;;;19.94;51.85;99420.38;1720056;81;22348;-70
2022/05/27 04:20:09;;;;;;;3.50;1.30;;;;;;;19.83;51.86;99419.48;1689119;82;21458;-69
2022/05/27 04:22:36;;;;;;;2.08;1.27;;;;;;;19.83;51.93;99421.28;1724670;81;21814;-69
2022/05/27 04:25:05;;;;;;;3.92;1.20;;;;;;;19.81;51.90;99426.73;1716714;81;20979;-68
2022/05/27 04:27:32;;;;;;;2.22;1.30;;;;;;;19.85;51.80;99429.99;1738205;80;21029;-70
2022/05/27 04:29:59;;;;;;;5.50;1.27;;;;;;;19.74;52.32;99427.38;1696170;81;21520;-69
2022/05/27 04:32:26;;;;;;;2.08;1.32;;;;;;;19.79;51.96;99441.19;1695366;81;21577;-70
2022/05/27 04:34:54;;;;;;;4.63;1.50;;;;;;;19.84;51.72;99435.83;1692525;82;21930;-70
2022/05/27 04:37:21;;;;;;;;;;;;;;;19.92;51.70;99431.66;1708977;81;21487;-67
2022/05/27 04:39:48;;;;;;;7.20;1.72;;;;;;;19.74;51.80;99432.25;1718378;81;28878;-69
2022/05/27 04:42:15;;;;;;;1.25;1.15;;;;;;;19.82;52.04;99438.27;1703740;81;21615;-67
2022/05/27 04:44:42;;;;;;;;;;;;;;;20.05;51.40;99433.64;1719087;82;21609;-68
2022/05/27 04:47:09;;;;;;;3.30;1.45;;;;;;;20.15;51.98;99429.69;1724839;80;20924;-68
2022/05/27 04:49:51;;;;;;;5.17;1.32;;;;;;;20.29;51.52;99430.69;1695654;82;21096;-68
2022/05/27 04:52:20;;;;;;;2.37;1.30;;;;;;;20.41;50.81;99432.27;1712664;83;21431;-68
2022/05/27 04:54:46;;;;;;;4.53;1.47;;;;;;;20.32;50.87;99433.57;1719431;81;21495;-68
2022/05/27 04:57:16;;;;;;;3.83;1.17;;;;;;;20.33;50.06;99429.94;1706584;82;21886;-67
2022/05/27 04:59:46;;;;;;;7.60;1.55;;;;;;;20.42;49.90;99421.13;1711892;83;21649;-66
2022/05/27 05:02:13;;;;;;;3.20;1.20;;;;;;;20.35;49.65;99430.64;1698554;82;21537;-67
2022/05/27 05:04:40;;;;;;;1.47;1.10;;;;;;;20.23;49.69;99432.06;1728966;81;21415;-66
2022/05/27 05:07:09;;;;;;;2.70;1.42;;;;;;;20.13;49.42;99433.81;1726331;81;21555;-68
2022/05/27 05:09:37;;;;;;;3.47;1.55;;;;;;;20.15;49.21;99433.69;1705667;81;21578;-67
2022/05/27 05:12:06;;;;;;;1.85;1.00;;;;;;;20.20;49.70;99434.98;1744564;81;22043;-68
2022/05/27 05:14:32;;;;;;;2.77;1.60;;;;;;;20.28;50.32;99436.16;1725504;81;21506;-67
2022/05/27 05:16:59;;;;;;;4.10;1.45;;;;;;;20.40;49.01;99423.92;1723639;80;21759;-67
2022/05/27 05:19:26;;;;;;;4.25;1.30;;;;;;;20.43;48.42;99425.47;1721584;81;21601;-67
2022/05/27 05:21:53;;;;;;;1.37;1.02;;;;;;;20.55;48.07;99423.54;1735556;80;21613;-68
2022/05/27 05:24:20;;;;;;;1.50;1.12;;;;;;;20.65;47.42;99424.47;1715834;81;21876;-68
2022/05/27 05:26:47;;;;;;;1.52;1.12;;;;;;;20.53;47.30;99426.84;1699572;82;21136;-67
2022/05/27 05:29:14;;;;;;;1.67;1.00;;;;;;;20.61;47.11;99431.07;1701740;82;21499;-71
2022/05/27 05:31:40;;;;;;;1.60;0.95;;;;;;;20.64;46.93;99426.77;1697368;82;21553;-61
2022/05/27 05:34:07;;;;;;;9.53;1.65;;;;;;;20.75;47.09;99424.49;1698847;82;20986;-61
2022/05/27 05:36:34;;;;;;;1.87;0.90;;;;;;;20.84;46.57;99427.69;1718315;81;21444;-61
2022/05/27 05:39:02;;;;;;;4.10;1.25;;;;;;;20.73;46.17;99431.80;1716218;81;21542;-63
2022/05/27 05:41:36;;;;;;;4.70;1.30;;;;;;;20.71;46.37;99437.27;1696911;82;21719;-65
2022/05/27 05:44:04;;;;;;;7.05;1.12;;;;;;;20.75;47.70;99429.34;1690304;81;21637;-64
2022/05/27 05:46:33;;;;;;;3.47;1.55;;;;;;;20.84;47.57;99433.03;1709228;81;21608;-63
2022/05/27 05:49:00;;;;;;;3.10;1.22;;;;;;;21.04;47.48;99425.91;1737948;81;21629;-66
2022/05/27 05:51:28;;;;;;;3.20;1.55;;;;;;;20.98;47.04;99422.44;1703722;81;21491;-60
2022/05/27 05:53:55;;;;;;;2.02;1.35;;;;;;;20.97;46.52;99420.27;1697995;82;21466;-60
2022/05/27 05:56:22;;;;;;;6.72;1.25;;;;;;;20.89;47.17;99423.25;1699263;82;21594;-59
2022/05/27 05:58:50;;;;;;;3.00;1.37;;;;;;;21.12;46.86;99421.21;1701072;81;21506;-59
2022/05/27 06:01:18;;;;;;;2.65;1.10;;;;;;;21.25;45.61;99423.13;1704648;81;21597;-57
2022/05/27 06:03:44;;;;;;;3.35;1.05;;;;;;;21.22;45.28;99423.39;1705167;82;21544;-61
2022/05/27 06:06:12;;;;;;;2.12;1.10;;;;;;;21.19;45.13;99420.98;1706130;81;21608;-60
2022/05/27 06:08:39;;;;;;;2.47;1.50;;;;;;;21.01;44.97;99418.16;1698065;82;21648;-61
2022/05/27 06:11:07;;;;;;;1.90;1.30;;;;;;;21.03;45.46;99420.70;1709198;81;21632;-61
2022/05/27 06:13:40;;;;;;;4.40;1.37;;;;;;;21.16;45.88;99419.95;1706467;82;21820;-58
2022/05/27 06:16:08;;;;;;;3.60;1.27;;;;;;;21.28;45.71;99413.97;1708824;82;21044;-57
2022/05/27 06:18:36;;;;;;;3.95;1.47;;;;;;;21.57;45.31;99418.03;1709727;82;21512;-56
2022/05/27 06:21:03;;;;;;;4.30;1.40;;;;;;;21.44;44.78;99416.10;1704598;82;21164;-57
2022/05/27 06:23:30;;;;;;;2.83;1.30;;;;;;;21.38;44.29;99400.96;1709673;82;21127;-57
2022/05/27 06:25:59;;;;;;;3.67;1.50;;;;;;;21.72;43.92;99398.37;1711920;82;21836;-57
2022/05/27 06:36:35;;;;;;;3.25;0.90;;;;;;;21.81;42.80;99397.48;1700368;82;21642;-64
2022/05/27 06:39:04;;;;;;;1.12;0.93;;;;;;;21.83;41.85;99399.55;1716911;82;21758;-65
2022/05/27 06:41:31;;;;;;;2.60;1.37;;;;;;;22.04;42.81;99390.46;1698298;82;21471;-64
2022/05/27 06:43:58;;;;;;;7.83;1.20;;;;;;;22.25;43.59;99388.94;1711035;83;21498;-62
2022/05/27 06:46:25;;;;;;;3.47;1.22;;;;;;;22.36;42.95;99383.42;1715007;81;21453;-62
2022/05/27 06:48:51;;;;;;;2.40;1.20;;;;;;;22.27;41.46;99385.64;1690864;83;21478;-62
2022/05/27 06:51:19;;;;;;;2.80;1.42;;;;;;;22.43;41.69;99374.28;1741146;81;21815;-62
2022/05/27 06:53:46;;;;;;;3.08;1.10;;;;;;;22.53;41.80;99377.27;1707812;82;25568;-62
2022/05/27 06:56:13;;;;;;;2.37;1.17;;;;;;;22.70;41.39;99372.12;1688512;82;21568;-62
2022/05/27 06:58:40;;;;;;;1.95;1.50;;;;;;;22.82;41.22;99370.89;1706875;82;21530;-64
2022/05/27 07:01:09;;;;;;;5.60;1.17;;;;;;;22.83;40.99;99366.38;1704129;82;21672;-64
2022/05/27 07:03:37;;;;;;;;;;;;;;;22.66;40.70;99364.00;1711652;83;22034;-63
2022/05/27 07:06:06;;;;;;;2.87;1.27;;;;;;;22.67;40.44;99367.87;1689031;83;20566;-64
2022/05/27 07:08:34;;;;;;;1.90;0.93;;;;;;;22.63;39.63;99365.66;1694718;83;21548;-65
2022/05/27 07:11:03;;;;;;;3.25;1.20;;;;;;;22.93;39.83;99359.95;1698894;82;21518;-64
2022/05/27 07:13:31;;;;;;;2.80;1.10;;;;;;;22.98;39.72;99358.66;1694803;82;21646;-65
2022/05/27 07:15:58;;;;;;;1.47;0.72;;;;;;;23.00;40.10;99368.72;1736742;81;21855;-65
2022/05/27 07:18:24;;;;;;;7.10;1.17;;;;;;;23.03;40.37;99363.07;1700820;82;21606;-63
2022/05/27 07:20:51;;;;;;;3.75;1.07;;;;;;;23.00;40.22;99364.70;1698113;82;21625;-65
2022/05/27 07:23:18;;;;;;;;;;;;;;;23.15;39.67;99361.02;1710751;82;21038;-62
2022/05/27 07:25:45;;;;;;;3.37;1.25;;;;;;;23.09;39.55;99360.66;1694983;82;20439;-62
2022/05/27 07:28:13;;;;;;;2.57;1.07;;;;;;;23.08;38.50;99357.62;1702295;82;21976;-63
2022/05/27 07:30:40;;;;;;;3.55;1.00;;;;;;;22.97;38.03;99348.44;1702540;82;21541;-63
2022/05/27 07:33:09;;;;;;;2.98;0.93;;;;;;;22.88;37.90;99342.64;1705700;82;21198;-63
2022/05/27 07:35:36;;;;;;;2.08;1.20;;;;;;;22.97;36.93;99323.47;1705137;81;21429;-63
2022/05/27 07:38:03;;;;;;;6.12;1.02;;;;;;;23.29;36.31;99333.67;1724155;81;21494;-62
2022/05/27 07:40:30;;;;;;;2.50;1.20;;;;;;;23.18;35.45;99329.39;1712116;81;21914;-62
2022/05/27 07:42:57;;;;;;;3.23;0.80;;;;;;;23.03;34.99;99334.92;1697718;82;21208;-62
2022/05/27 07:45:27;;;;;;;4.50;1.02;;;;;;;22.85;35.20;99334.42;1690815;82;21577;-63
2022/05/27 07:47:54;;;;;;;4.72;1.12;;;;;;;23.06;35.16;99336.00;1704442;82;21451;-65
2022/05/27 07:50:22;;;;;;;;;;;;;;;23.30;35.06;99328.64;1725392;80;21571;-63
2022/05/27 07:52:49;;;;;;;3.60;1.20;;;;;;;23.53;34.87;99337.06;1705483;82;21849;-63
2022/05/27 07:55:16;;;;;;;2.87;0.98;;;;;;;23.74;35.78;99338.55;1729246;81;21400;-65
2022/05/27 07:57:47;;;;;;;2.20;1.00;;;;;;;23.46;35.62;99334.65;1709204;81;21574;-63
2022/05/27 08:00:18;;;;;;;8.35;1.30;;;;;;;23.64;35.29;99336.80;1716763;82;21593;-66
2022/05/27 08:02:45;;;;;;;3.72;1.47;;;;;;;23.63;35.14;99339.13;1707212;83;21563;-65
2022/05/27 08:05:15;;;;;;;3.67;1.20;;;;;;;23.59;34.68;99332.39;1694110;82;22044;-66
2022/05/27 08:07:42;;;;;;;3.33;1.15;;;;;;;23.63;34.11;99332.42;1707110;82;21579;-66
2022/05/27 08:10:10;;;;;;;2.42;0.90;;;;;;;23.83;34.58;99325.55;1694029;82;21586;-66
2022/05/27 08:12:37;;;;;;;2.40;1.10;;;;;;;23.84;34.33;99309.27;1705802;81;21519;-64
2022/05/27 08:15:05;;;;;;;;;;;;;;;23.94;35.13;99298.91;1734645;81;21479;-65
2022/05/27 08:17:32;;;;;;;2.70;1.02;;;;;;;23.91;34.21;99330.95;1697990;82;21915;-67
2022/05/27 08:19:59;;;;;;;3.77;1.03;;;;;;;23.90;34.79;99319.39;1698573;83;21448;-66
2022/05/27 08:22:25;;;;;;;3.47;1.42;;;;;;;23.97;35.67;99316.89;1701499;82;21455;-67
2022/05/27 08:24:54;;;;;;;1.95;1.15;;;;;;;24.06;35.31;99318.62;1693318;83;21588;-66
2022/05/27 08:27:21;;;;;;;4.90;1.30;;;;;;;24.29;35.49;99312.16;1713544;82;21056;-67
2022/05/27 08:29:48;;;;;;;1.72;1.22;;;;;;;24.33;35.26;99310.50;1725649;81;21868;-69
2022/05/27 08:32:15;;;;;;;4.80;1.27;;;;;;;24.38;35.36;99311.70;1711947;81;21549;-68
2022/05/27 08:40:37;;;;;;;1.75;1.20;;;;;;;24.49;35.74;99304.69;1701506;82;21666;-71
2022/05/27 08:43:26;;;;;;;7.53;1.70;;;;;;;24.55;35.80;99299.70;1691418;81;22282;-68
2022/05/27 08:46:33;;;;;;;5.60;1.45;;;;;;;24.43;36.15;99312.55;1711072;81;21620;-65
2022/05/27 08:49:06;;;;;;;5.10;1.52;;;;;;;24.30;35.90;99310.34;1648870;81;21497;-68
2022/05/27 08:51:52;;;;;;;2.05;1.25;;;;;;;24.24;35.04;99306.45;1696616;81;21474;-69
2022/05/27 08:54:29;;;;;;;3.37;1.10;;;;;;;24.30;35.54;99300.94;1707284;82;21765;-71
2022/05/27 09:00:04;;;;;;;2.70;1.03;;;;;;;24.59;35.38;99302.39;1686500;82;21457;-71
2022/05/27 09:02:44;;;;;;;2.83;1.50;;;;;;;24.46;35.50;99300.14;1708048;82;21584;-71
2022/05/27 09:05:18;;;;;;;4.17;1.37;;;;;;;24.84;35.93;99297.38;1706446;82;21545;-71
2022/05/27 09:08:22;;;;;;;4.55;1.10;;;;;;;25.09;35.27;99289.36;1712575;80;21727;-69
2022/05/27 09:11:12;;;;;;;1.40;1.05;;;;;;;24.99;34.22;99296.73;1708547;81;21819;-76
2022/05/27 09:13:59;;;;;;;3.42;1.40;;;;;;;24.95;35.28;99295.39;1686883;83;21411;-72
2022/05/27 09:16:36;;;;;;;2.60;1.20;;;;;;;25.00;34.49;99298.44;1686779;83;21429;-70
2022/05/27 09:19:45;;;;;;;2.35;1.50;;;;;;;24.85;35.05;99292.36;1694687;82;21902;-69
2022/05/27 09:22:32;;;;;;;4.45;1.42;;;;;;;24.63;34.20;99291.65;1714072;82;21542;-67
2022/05/27 09:25:25;;;;;;;3.10;1.12;;;;;;;24.58;34.72;99292.63;1704845;82;21753;-70
2022/05/27 09:28:27;;;;;;;2.75;1.30;;;;;;;24.56;34.72;99287.93;1711815;81;21497;-71
2022/05/27 09:30:53;;;;;;;2.60;1.22;;;;;;;24.45;34.32;99285.88;1703137;83;21629;-67
2022/05/27 09:33:21;;;;;;;3.50;1.72;;;;;;;24.51;34.81;99286.23;1667886;83;21633;-68
2022/05/27 09:35:58;;;;;;;2.67;1.30;;;;;;;24.49;34.77;99277.81;1679472;83;27489;-69
2022/05/27 09:38:29;;;;;;;2.25;1.70;;;;;;;24.69;34.25;99268.13;1691712;83;21909;-68
2022/05/27 09:41:23;;;;;;;4.40;1.50;;;;;;;24.78;34.44;99279.23;1722534;81;21510;-68
2022/05/27 09:43:56;;;;;;;2.25;1.10;;;;;;;24.76;33.58;99275.88;1705450;82;21814;-70
2022/05/27 09:46:27;;;;;;;7.17;1.52;;;;;;;24.83;34.65;99270.17;1705839;82;21582;-66
2022/05/27 09:48:56;;;;;;;7.37;2.50;;;;;;;25.01;34.89;99265.14;1711508;82;21626;-67
2022/05/27 09:53:21;;;;;;;3.58;1.40;;;;;;;24.61;36.48;99261.41;1780328;78;23136;-73
2022/05/27 09:55:57;;;;;;;3.40;2.90;;;;;;;25.37;33.33;99256.73;1753817;80;21521;-72
2022/05/27 09:58:33;;;;;;;3.37;1.90;;;;;;;25.29;33.93;99264.83;1757088;79;21877;-70
2022/05/27 10:01:23;;;;;;;2.80;1.40;;;;;;;24.95;33.79;99259.09;1755173;80;21451;-72
2022/05/27 10:04:06;;;;;;;5.25;1.37;;;;;;;24.85;33.94;99272.19;1767100;79;21479;-71
2022/05/27 10:06:35;;;;;;;5.30;1.40;;;;;;;24.70;33.67;99260.42;1759323;79;20938;-73
2022/05/27 10:09:06;;;;;;;5.95;1.20;;;;;;;24.61;33.82;99256.87;1764257;80;21469;-69
2022/05/27 10:11:50;;;;;;;3.60;1.30;;;;;;;24.98;35.12;99254.22;1765918;79;21857;-70
2022/05/27 10:14:33;;;;;;;1.47;1.20;;;;;;;25.20;33.37;99241.09;1762213;80;20943;-71
2022/05/27 10:17:14;;;;;;;2.05;1.00;;;;;;;25.13;33.00;99239.60;1757949;79;21451;-74
2022/05/27 10:19:43;;;;;;;4.17;1.30;;;;;;;25.27;33.81;99230.02;1772970;80;21517;-74
2022/05/27 10:22:25;;;;;;;3.90;2.17;;;;;;;25.61;32.54;99232.98;1763456;79;21514;-71
2022/05/27 10:25:02;;;;;;;1.85;1.30;;;;;;;25.42;32.30;99234.20;1759819;80;21753;-70
2022/05/27 10:27:36;;;;;;;3.55;1.10;;;;;;;25.59;32.59;99221.03;1763186;79;21443;-71
2022/05/27 10:30:08;;;;;;;1.47;1.17;;;;;;;25.68;32.29;99220.52;1762087;79;21430;-71
2022/05/27 10:32:42;;;;;;;3.40;1.32;;;;;;;25.84;32.58;99220.95;1769165;79;21407;-71
2022/05/27 10:35:30;;;;;;;2.75;1.22;;;;;;;25.87;31.72;99221.95;1771233;80;21522;-72
2022/05/27 10:38:40;;;;;;;3.70;1.40;;;;;;;25.90;32.05;99222.97;1758943;80;21986;-70
2022/05/27 10:41:34;;;;;;;3.37;1.47;;;;;;;25.92;32.31;99213.38;1754103;79;21435;-70
2022/05/27 10:44:19;;;;;;;2.42;1.07;;;;;;;26.51;32.27;99206.16;1773070;79;21443;-68
2022/05/27 10:46:55;;;;;;;3.50;1.30;;;;;;;26.51;32.27;99206.16;1774254;79;21448;-72
2022/05/27 10:49:50;;;;;;;3.92;1.40;;;;;;;26.52;31.76;99195.69;1764902;79;21522;-71
2022/05/27 10:52:59;;;;;;;2.33;1.37;;;;;;;26.58;31.66;99206.60;1758668;80;21558;-72
2022/05/27 10:55:46;;;;;;;2.83;1.35;;;;;;;26.77;30.99;99201.27;1759898;80;21491;-70
2022/05/27 11:04:43;;;;;;;7.95;1.42;;;;;;;26.78;30.95;99197.53;1759093;80;21514;-60
2022/05/27 11:07:40;;;;;;;4.75;1.60;;;;;;;26.85;31.33;99185.52;1750503;80;21910;-63
2022/05/27 11:10:43;;;;;;;4.37;1.65;;;;;;;26.97;31.39;99183.22;1761952;79;21503;-63
2022/05/27 11:16:49;;;;;;;1.98;1.50;;;;;;;26.42;31.33;99181.10;1755693;79;21435;-61
2022/05/27 11:19:39;;;;;;;2.02;1.20;;;;;;;26.44;31.36;99156.16;1752334;79;21606;-66
2022/05/27 11:22:23;;;;;;;3.08;1.60;;;;;;;26.44;31.36;99156.16;1753183;79;21972;-60
2022/05/27 11:25:19;;;;;;;1.52;1.17;;;;;;;26.37;31.64;99160.58;1758513;79;21416;-58
2022/05/27 11:28:26;;;;;;;5.62;1.40;;;;;;;26.25;31.35;99160.69;1757257;79;21495;-58
2022/05/27 11:31:27;;;;;;;3.20;1.32;;;;;;;26.25;31.76;99154.78;1750651;79;21028;-63
2022/05/27 11:34:23;;;;;;;2.33;1.30;;;;;;;26.06;31.75;99152.03;1753211;79;21513;-59
2022/05/27 11:37:29;;;;;;;6.58;1.42;;;;;;;26.06;31.75;99152.03;1757081;80;21803;-67
2022/05/27 11:40:27;;;;;;;4.70;1.92;;;;;;;26.09;31.90;99143.61;1758651;80;21463;-68
2022/05/27 11:43:37;;;;;;;2.40;1.40;;;;;;;26.05;32.46;99140.09;1752821;80;21021;-65
2022/05/27 11:46:25;;;;;;;5.45;1.40;;;;;;;26.35;32.80;99136.53;1759439;80;21190;-65
2022/05/27 11:49:04;;;;;;;8.95;1.47;;;;;;;26.55;31.64;99122.56;1758285;80;21538;-64
2022/05/27 11:51:45;;;;;;;2.85;1.20;;;;;;;26.55;31.64;99122.56;1725554;80;21788;-65
2022/05/27 11:54:17;;;;;;;4.53;1.40;;;;;;;26.38;31.44;99123.20;1762735;80;21518;-64
2022/05/27 11:57:08;;;;;;;1.27;1.00;;;;;;;26.38;31.44;99123.20;1773203;80;21491;-70
2022/05/27 11:59:38;;;;;;;3.52;1.17;;;;;;;26.12;31.74;99123.55;1764684;80;21562;-67
2022/05/27 12:02:32;;;;;;;3.30;1.10;;;;;;;26.12;31.74;99123.55;1753826;80;21523;-65
2022/05/27 12:05:12;;;;;;;2.80;1.30;;;;;;;26.09;32.00;99122.55;1754967;80;21768;-64
2022/05/27 12:08:02;;;;;;;3.42;1.20;;;;;;;26.22;32.62;99114.73;1760236;80;20954;-67
2022/05/27 12:10:50;;;;;;;2.50;1.22;;;;;;;26.34;32.31;99115.98;1754093;80;21602;-67
2022/05/27 12:13:37;;;;;;;3.22;1.22;;;;;;;26.44;31.87;99111.69;1759776;80;21638;-67
2022/05/27 12:16:17;;;;;;;5.78;1.17;;;;;;;26.44;31.87;99111.69;1764907;80;21535;-67
2022/05/27 12:18:57;;;;;;;1.30;1.20;;;;;;;26.41;32.45;99100.77;1757644;80;21846;-67
2022/05/27 12:21:27;;;;;;;2.35;1.57;;;;;;;26.41;32.45;99100.77;1755346;80;21459;-68
2022/05/27 12:24:20;;;;;;;4.08;0.90;;;;;;;26.67;31.90;99096.85;1762582;80;21506;-67
2022/05/27 12:26:48;;;;;;;3.77;0.90;;;;;;;26.77;32.07;99093.41;1753659;80;21435;-64
2022/05/27 12:29:15;;;;;;;4.10;1.10;;;;;;;26.90;31.75;99081.13;1752631;80;21506;-67
2022/05/27 12:31:42;;;;;;;2.00;1.32;;;;;;;26.87;31.54;99081.52;1752375;80;22166;-65
2022/05/27 12:34:32;;;;;;;4.30;1.05;;;;;;;26.88;31.73;99077.78;1756954;80;21085;-66
2022/05/27 12:37:01;;;;;;;1.32;1.00;;;;;;;27.04;31.84;99059.25;1752488;80;21034;-68
2022/05/27 12:39:30;;;;;;;3.75;1.07;;;;;;;27.04;31.84;99059.25;1763044;80;20993;-67
2022/05/27 12:42:13;;;;;;;2.87;1.15;;;;;;;27.27;31.99;99059.16;1765062;80;21475;-69
2022/05/27 12:44:41;;;;;;;1.10;0.90;;;;;;;27.14;30.97;99063.84;1756315;80;21811;-64
2022/05/27 12:47:36;;;;;;;2.47;1.10;;;;;;;26.75;30.92;99046.91;1756216;80;21578;-64